sensor_id;sensor_type;location;lat;lon;timestamp;P1;P2;P0
47741;PMS5003;33504;52.066;6.096;2022-08-11T00:01:04;9;9;
47741;PMS5003;33504;52.066;6.096;2022-08-11T00:03:35;9;8;
47741;PMS5003;33504;52.066;6.096;2022-08-11T00:06:08;8;8;
47741;PMS5003;33504;52.066;6.096;2022-08-11T00:08:36;7;7;
47741;PMS5003;33504;52.066;6.096;2022-08-11T00:11:05;11;11;
47741;PMS5003;33504;52.066;6.096;2022-08-11T00:13:35;7;7;
47741;PMS5003;33504;52.066;6.096;2022-08-11T00:16:10;8;8;
47741;PMS5003;33504;52.066;6.096;2022-08-11T00:18:40;6;6;
47741;PMS5003;33504;52.066;6.096;2022-08-11T00:21:09;9;8;
47741;PMS5003;33504;52.066;6.096;2022-08-11T00:23:40;10;10;
47741;PMS5003;33504;52.066;6.096;2022-08-11T00:26:10;8;8;
47741;PMS5003;33504;52.066;6.096;2022-08-11T00:28:39;10;9;
47741;PMS5003;33504;52.066;6.096;2022-08-11T00:31:07;8;8;
47741;PMS5003;33504;52.066;6.096;2022-08-11T00:33:38;9;9;
47741;PMS5003;33504;52.066;6.096;2022-08-11T00:36:07;9;9;
47741;PMS5003;33504;52.066;6.096;2022-08-11T00:38:36;10;10;
47741;PMS5003;33504;52.066;6.096;2022-08-11T00:41:09;8;8;
47741;PMS5003;33504;52.066;6.096;2022-08-11T00:43:48;8;8;
47741;PMS5003;33504;52.066;6.096;2022-08-11T00:46:30;11;11;
47741;PMS5003;33504;52.066;6.096;2022-08-11T00:49:10;9;9;
47741;PMS5003;33504;52.066;6.096;2022-08-11T00:51:48;10;10;
47741;PMS5003;33504;52.066;6.096;2022-08-11T00:54:30;9;9;
47741;PMS5003;33504;52.066;6.096;2022-08-11T00:57:21;9;9;
47741;PMS5003;33504;52.066;6.096;2022-08-11T01:00:05;11;10;
47741;PMS5003;33504;52.066;6.096;2022-08-11T01:02:45;9;8;
47741;PMS5003;33504;52.066;6.096;2022-08-11T01:05:44;12;12;
47741;PMS5003;33504;52.066;6.096;2022-08-11T01:08:29;10;10;
47741;PMS5003;33504;52.066;6.096;2022-08-11T01:11:17;12;12;
47741;PMS5003;33504;52.066;6.096;2022-08-11T01:14:07;11;10;
47741;PMS5003;33504;52.066;6.096;2022-08-11T01:14:51;11;10;
47741;PMS5003;33504;52.066;6.096;2022-08-11T01:18:28;13;13;
47741;PMS5003;33504;52.066;6.096;2022-08-11T01:21:23;10;10;
47741;PMS5003;33504;52.066;6.096;2022-08-11T01:24:30;13;13;
47741;PMS5003;33504;52.066;6.096;2022-08-11T01:27:20;12;12;
47741;PMS5003;33504;52.066;6.096;2022-08-11T01:30:16;14;14;
47741;PMS5003;33504;52.066;6.096;2022-08-11T01:33:35;11;11;
47741;PMS5003;33504;52.066;6.096;2022-08-11T01:36:46;13;13;
47741;PMS5003;33504;52.066;6.096;2022-08-11T01:39:37;11;11;
47741;PMS5003;33504;52.066;6.096;2022-08-11T01:42:36;12;12;
47741;PMS5003;33504;52.066;6.096;2022-08-11T01:45:26;11;11;
47741;PMS5003;33504;52.066;6.096;2022-08-11T01:48:03;11;11;
47741;PMS5003;33504;52.066;6.096;2022-08-11T01:51:13;12;12;
47741;PMS5003;33504;52.066;6.096;2022-08-11T01:53:50;12;12;
47741;PMS5003;33504;52.066;6.096;2022-08-11T01:56:28;13;13;
47741;PMS5003;33504;52.066;6.096;2022-08-11T01:59:05;11;11;
47741;PMS5003;33504;52.066;6.096;2022-08-11T02:01:44;10;10;
47741;PMS5003;33504;52.066;6.096;2022-08-11T02:04:24;12;12;
47741;PMS5003;33504;52.066;6.096;2022-08-11T02:07:00;10;9;
47741;PMS5003;33504;52.066;6.096;2022-08-11T02:09:42;12;11;
47741;PMS5003;33504;52.066;6.096;2022-08-11T02:12:17;11;11;
47741;PMS5003;33504;52.066;6.096;2022-08-11T02:15:06;14;13;
47741;PMS5003;33504;52.066;6.096;2022-08-11T02:17:47;13;12;
47741;PMS5003;33504;52.066;6.096;2022-08-11T02:20:25;11;11;
47741;PMS5003;33504;52.066;6.096;2022-08-11T02:22:56;13;13;
47741;PMS5003;33504;52.066;6.096;2022-08-11T02:25:28;12;12;
47741;PMS5003;33504;52.066;6.096;2022-08-11T02:28:05;14;14;
47741;PMS5003;33504;52.066;6.096;2022-08-11T02:30:38;15;15;
47741;PMS5003;33504;52.066;6.096;2022-08-11T02:33:19;13;11;
47741;PMS5003;33504;52.066;6.096;2022-08-11T02:35:55;11;11;
47741;PMS5003;33504;52.066;6.096;2022-08-11T02:38:29;15;14;
47741;PMS5003;33504;52.066;6.096;2022-08-11T02:41:05;13;13;
47741;PMS5003;33504;52.066;6.096;2022-08-11T02:43:40;15;14;
47741;PMS5003;33504;52.066;6.096;2022-08-11T02:46:18;13;13;
47741;PMS5003;33504;52.066;6.096;2022-08-11T02:48:52;15;14;
47741;PMS5003;33504;52.066;6.096;2022-08-11T02:51:41;14;14;
47741;PMS5003;33504;52.066;6.096;2022-08-11T02:54:22;14;14;
47741;PMS5003;33504;52.066;6.096;2022-08-11T02:57:00;14;14;
47741;PMS5003;33504;52.066;6.096;2022-08-11T02:59:38;15;15;
47741;PMS5003;33504;52.066;6.096;2022-08-11T03:02:14;14;14;
47741;PMS5003;33504;52.066;6.096;2022-08-11T03:04:54;15;15;
47741;PMS5003;33504;52.066;6.096;2022-08-11T03:07:30;19;19;
47741;PMS5003;33504;52.066;6.096;2022-08-11T03:10:07;22;21;
47741;PMS5003;33504;52.066;6.096;2022-08-11T03:12:44;19;19;
47741;PMS5003;33504;52.066;6.096;2022-08-11T03:15:18;29;29;
47741;PMS5003;33504;52.066;6.096;2022-08-11T03:17:54;31;30;
47741;PMS5003;33504;52.066;6.096;2022-08-11T03:20:31;35;34;
47741;PMS5003;33504;52.066;6.096;2022-08-11T03:23:06;25;25;
47741;PMS5003;33504;52.066;6.096;2022-08-11T03:25:44;27;26;
47741;PMS5003;33504;52.066;6.096;2022-08-11T03:28:23;83;83;
47741;PMS5003;33504;52.066;6.096;2022-08-11T03:31:00;17;17;
47741;PMS5003;33504;52.066;6.096;2022-08-11T03:33:37;90;90;
47741;PMS5003;33504;52.066;6.096;2022-08-11T03:36:11;87;86;
47741;PMS5003;33504;52.066;6.096;2022-08-11T03:38:52;28;28;
47741;PMS5003;33504;52.066;6.096;2022-08-11T03:41:33;38;37;
47741;PMS5003;33504;52.066;6.096;2022-08-11T03:44:05;108;107;
47741;PMS5003;33504;52.066;6.096;2022-08-11T03:46:53;40;40;
47741;PMS5003;33504;52.066;6.096;2022-08-11T03:49:32;60;60;
47741;PMS5003;33504;52.066;6.096;2022-08-11T03:52:12;37;37;
47741;PMS5003;33504;52.066;6.096;2022-08-11T03:54:53;35;35;
47741;PMS5003;33504;52.066;6.096;2022-08-11T03:57:40;34;34;
47741;PMS5003;33504;52.066;6.096;2022-08-11T04:00:28;30;30;
47741;PMS5003;33504;52.066;6.096;2022-08-11T04:03:24;44;44;
47741;PMS5003;33504;52.066;6.096;2022-08-11T04:04:06;48;47;
47741;PMS5003;33504;52.066;6.096;2022-08-11T04:07:26;59;57;
47741;PMS5003;33504;52.066;6.096;2022-08-11T04:10:24;38;38;
47741;PMS5003;33504;52.066;6.096;2022-08-11T04:14:50;39;38;
47741;PMS5003;33504;52.066;6.096;2022-08-11T04:17:43;34;34;
47741;PMS5003;33504;52.066;6.096;2022-08-11T04:20:34;33;33;
47741;PMS5003;33504;52.066;6.096;2022-08-11T04:23:23;35;35;
47741;PMS5003;33504;52.066;6.096;2022-08-11T04:26:12;50;49;
47741;PMS5003;33504;52.066;6.096;2022-08-11T04:29:02;41;41;
47741;PMS5003;33504;52.066;6.096;2022-08-11T04:31:43;48;48;
47741;PMS5003;33504;52.066;6.096;2022-08-11T04:34:32;32;32;
47741;PMS5003;33504;52.066;6.096;2022-08-11T04:37:10;31;30;
47741;PMS5003;33504;52.066;6.096;2022-08-11T04:39:58;33;33;
47741;PMS5003;33504;52.066;6.096;2022-08-11T04:43:14;31;30;
47741;PMS5003;33504;52.066;6.096;2022-08-11T04:46:30;65;64;
47741;PMS5003;33504;52.066;6.096;2022-08-11T04:50:19;32;31;
47741;PMS5003;33504;52.066;6.096;2022-08-11T04:53:01;42;42;
47741;PMS5003;33504;52.066;6.096;2022-08-11T04:55:46;36;36;
47741;PMS5003;33504;52.066;6.096;2022-08-11T04:58:34;29;28;
47741;PMS5003;33504;52.066;6.096;2022-08-11T05:01:19;57;56;
47741;PMS5003;33504;52.066;6.096;2022-08-11T05:04:03;46;46;
47741;PMS5003;33504;52.066;6.096;2022-08-11T05:07:34;30;29;
47741;PMS5003;33504;52.066;6.096;2022-08-11T05:08:54;33;32;
47741;PMS5003;33504;52.066;6.096;2022-08-11T05:11:38;36;36;
47741;PMS5003;33504;52.066;6.096;2022-08-11T05:14:26;26;26;
47741;PMS5003;33504;52.066;6.096;2022-08-11T05:16:58;47;46;
47741;PMS5003;33504;52.066;6.096;2022-08-11T05:19:29;27;27;
47741;PMS5003;33504;52.066;6.096;2022-08-11T05:21:56;32;32;
47741;PMS5003;33504;52.066;6.096;2022-08-11T05:24:25;35;33;
47741;PMS5003;33504;52.066;6.096;2022-08-11T05:27:00;31;31;
47741;PMS5003;33504;52.066;6.096;2022-08-11T05:29:37;28;27;
47741;PMS5003;33504;52.066;6.096;2022-08-11T05:32:07;53;53;
47741;PMS5003;33504;52.066;6.096;2022-08-11T05:34:42;19;19;
47741;PMS5003;33504;52.066;6.096;2022-08-11T05:37:12;20;20;
47741;PMS5003;33504;52.066;6.096;2022-08-11T05:39:45;27;27;
47741;PMS5003;33504;52.066;6.096;2022-08-11T05:42:15;62;61;
47741;PMS5003;33504;52.066;6.096;2022-08-11T05:44:47;29;29;
47741;PMS5003;33504;52.066;6.096;2022-08-11T05:47:23;46;46;
47741;PMS5003;33504;52.066;6.096;2022-08-11T05:49:52;33;33;
47741;PMS5003;33504;52.066;6.096;2022-08-11T05:52:20;32;29;
47741;PMS5003;33504;52.066;6.096;2022-08-11T05:54:50;22;22;
47741;PMS5003;33504;52.066;6.096;2022-08-11T05:57:17;27;25;
47741;PMS5003;33504;52.066;6.096;2022-08-11T05:59:46;24;23;
47741;PMS5003;33504;52.066;6.096;2022-08-11T06:02:14;22;22;
47741;PMS5003;33504;52.066;6.096;2022-08-11T06:04:42;25;24;
47741;PMS5003;33504;52.066;6.096;2022-08-11T06:07:10;24;22;
47741;PMS5003;33504;52.066;6.096;2022-08-11T06:09:39;23;22;
47741;PMS5003;33504;52.066;6.096;2022-08-11T06:12:16;18;18;
47741;PMS5003;33504;52.066;6.096;2022-08-11T06:14:45;22;21;
47741;PMS5003;33504;52.066;6.096;2022-08-11T06:17:20;20;19;
47741;PMS5003;33504;52.066;6.096;2022-08-11T06:19:48;23;22;
47741;PMS5003;33504;52.066;6.096;2022-08-11T06:22:18;18;17;
47741;PMS5003;33504;52.066;6.096;2022-08-11T06:24:50;19;19;
47741;PMS5003;33504;52.066;6.096;2022-08-11T06:27:21;25;24;
47741;PMS5003;33504;52.066;6.096;2022-08-11T06:29:50;18;18;
47741;PMS5003;33504;52.066;6.096;2022-08-11T06:32:19;20;19;
47741;PMS5003;33504;52.066;6.096;2022-08-11T06:34:54;20;20;
47741;PMS5003;33504;52.066;6.096;2022-08-11T06:37:29;20;20;
47741;PMS5003;33504;52.066;6.096;2022-08-11T06:40:09;17;17;
47741;PMS5003;33504;52.066;6.096;2022-08-11T06:42:46;21;21;
47741;PMS5003;33504;52.066;6.096;2022-08-11T06:45:23;19;18;
47741;PMS5003;33504;52.066;6.096;2022-08-11T06:47:54;19;19;
47741;PMS5003;33504;52.066;6.096;2022-08-11T06:50:22;17;17;
47741;PMS5003;33504;52.066;6.096;2022-08-11T06:52:50;17;17;
47741;PMS5003;33504;52.066;6.096;2022-08-11T06:55:21;18;17;
47741;PMS5003;33504;52.066;6.096;2022-08-11T06:57:49;15;14;
47741;PMS5003;33504;52.066;6.096;2022-08-11T07:00:16;15;15;
47741;PMS5003;33504;52.066;6.096;2022-08-11T07:02:48;14;14;
47741;PMS5003;33504;52.066;6.096;2022-08-11T07:05:20;29;29;
47741;PMS5003;33504;52.066;6.096;2022-08-11T07:08:06;24;23;
47741;PMS5003;33504;52.066;6.096;2022-08-11T07:11:00;16;16;
47741;PMS5003;33504;52.066;6.096;2022-08-11T07:13:43;14;13;
47741;PMS5003;33504;52.066;6.096;2022-08-11T07:16:12;13;13;
47741;PMS5003;33504;52.066;6.096;2022-08-11T07:18:43;13;13;
47741;PMS5003;33504;52.066;6.096;2022-08-11T07:21:15;13;13;
47741;PMS5003;33504;52.066;6.096;2022-08-11T07:23:47;13;13;
47741;PMS5003;33504;52.066;6.096;2022-08-11T07:26:15;10;10;
47741;PMS5003;33504;52.066;6.096;2022-08-11T07:28:46;11;11;
47741;PMS5003;33504;52.066;6.096;2022-08-11T07:31:16;13;13;
47741;PMS5003;33504;52.066;6.096;2022-08-11T07:33:50;10;10;
47741;PMS5003;33504;52.066;6.096;2022-08-11T07:36:24;9;9;
47741;PMS5003;33504;52.066;6.096;2022-08-11T07:38:54;12;12;
47741;PMS5003;33504;52.066;6.096;2022-08-11T07:41:22;11;11;
47741;PMS5003;33504;52.066;6.096;2022-08-11T07:43:52;18;18;
47741;PMS5003;33504;52.066;6.096;2022-08-11T07:46:22;13;12;
47741;PMS5003;33504;52.066;6.096;2022-08-11T07:48:49;10;10;
47741;PMS5003;33504;52.066;6.096;2022-08-11T07:51:18;12;12;
47741;PMS5003;33504;52.066;6.096;2022-08-11T07:53:45;12;10;
47741;PMS5003;33504;52.066;6.096;2022-08-11T07:56:14;10;10;
47741;PMS5003;33504;52.066;6.096;2022-08-11T07:58:43;8;8;
47741;PMS5003;33504;52.066;6.096;2022-08-11T08:01:10;8;8;
47741;PMS5003;33504;52.066;6.096;2022-08-11T08:03:38;9;9;
47741;PMS5003;33504;52.066;6.096;2022-08-11T08:06:08;9;8;
47741;PMS5003;33504;52.066;6.096;2022-08-11T08:08:36;12;11;
47741;PMS5003;33504;52.066;6.096;2022-08-11T08:11:05;35;35;
47741;PMS5003;33504;52.066;6.096;2022-08-11T08:13:34;20;20;
47741;PMS5003;33504;52.066;6.096;2022-08-11T08:16:02;12;12;
47741;PMS5003;33504;52.066;6.096;2022-08-11T08:18:33;11;10;
47741;PMS5003;33504;52.066;6.096;2022-08-11T08:21:02;10;10;
47741;PMS5003;33504;52.066;6.096;2022-08-11T08:23:30;11;10;
47741;PMS5003;33504;52.066;6.096;2022-08-11T08:25:57;9;9;
47741;PMS5003;33504;52.066;6.096;2022-08-11T08:28:26;10;9;
47741;PMS5003;33504;52.066;6.096;2022-08-11T08:30:54;10;9;
47741;PMS5003;33504;52.066;6.096;2022-08-11T08:33:23;10;10;
47741;PMS5003;33504;52.066;6.096;2022-08-11T08:35:53;11;11;
47741;PMS5003;33504;52.066;6.096;2022-08-11T08:38:23;11;11;
47741;PMS5003;33504;52.066;6.096;2022-08-11T08:40:51;10;10;
47741;PMS5003;33504;52.066;6.096;2022-08-11T08:43:19;10;10;
47741;PMS5003;33504;52.066;6.096;2022-08-11T08:45:49;11;11;
47741;PMS5003;33504;52.066;6.096;2022-08-11T08:48:20;12;10;
47741;PMS5003;33504;52.066;6.096;2022-08-11T08:50:52;10;9;
47741;PMS5003;33504;52.066;6.096;2022-08-11T08:53:24;9;8;
47741;PMS5003;33504;52.066;6.096;2022-08-11T08:55:55;11;11;
47741;PMS5003;33504;52.066;6.096;2022-08-11T08:58:24;12;11;
47741;PMS5003;33504;52.066;6.096;2022-08-11T09:00:52;11;10;
47741;PMS5003;33504;52.066;6.096;2022-08-11T09:03:22;12;12;
47741;PMS5003;33504;52.066;6.096;2022-08-11T09:05:49;11;11;
47741;PMS5003;33504;52.066;6.096;2022-08-11T09:08:20;10;10;
47741;PMS5003;33504;52.066;6.096;2022-08-11T09:10:48;11;10;
47741;PMS5003;33504;52.066;6.096;2022-08-11T09:13:16;9;9;
47741;PMS5003;33504;52.066;6.096;2022-08-11T09:15:44;12;12;
47741;PMS5003;33504;52.066;6.096;2022-08-11T09:18:11;7;7;
47741;PMS5003;33504;52.066;6.096;2022-08-11T09:20:39;9;9;
47741;PMS5003;33504;52.066;6.096;2022-08-11T09:23:06;12;12;
47741;PMS5003;33504;52.066;6.096;2022-08-11T09:25:34;9;9;
47741;PMS5003;33504;52.066;6.096;2022-08-11T09:28:02;9;8;
47741;PMS5003;33504;52.066;6.096;2022-08-11T09:30:30;10;10;
47741;PMS5003;33504;52.066;6.096;2022-08-11T09:32:58;9;8;
47741;PMS5003;33504;52.066;6.096;2022-08-11T09:35:27;10;10;
47741;PMS5003;33504;52.066;6.096;2022-08-11T09:37:56;11;10;
47741;PMS5003;33504;52.066;6.096;2022-08-11T09:40:24;10;9;
47741;PMS5003;33504;52.066;6.096;2022-08-11T09:42:52;10;9;
47741;PMS5003;33504;52.066;6.096;2022-08-11T09:45:19;13;12;
47741;PMS5003;33504;52.066;6.096;2022-08-11T09:47:46;11;10;
47741;PMS5003;33504;52.066;6.096;2022-08-11T09:50:14;12;12;
47741;PMS5003;33504;52.066;6.096;2022-08-11T09:52:42;12;11;
47741;PMS5003;33504;52.066;6.096;2022-08-11T09:55:14;10;10;
47741;PMS5003;33504;52.066;6.096;2022-08-11T09:57:44;12;11;
47741;PMS5003;33504;52.066;6.096;2022-08-11T10:00:13;11;11;
47741;PMS5003;33504;52.066;6.096;2022-08-11T10:02:42;12;11;
47741;PMS5003;33504;52.066;6.096;2022-08-11T10:05:13;9;9;
47741;PMS5003;33504;52.066;6.096;2022-08-11T10:07:43;10;10;
47741;PMS5003;33504;52.066;6.096;2022-08-11T10:10:12;12;12;
47741;PMS5003;33504;52.066;6.096;2022-08-11T10:12:41;11;11;
47741;PMS5003;33504;52.066;6.096;2022-08-11T10:15:15;12;11;
47741;PMS5003;33504;52.066;6.096;2022-08-11T10:17:46;8;8;
47741;PMS5003;33504;52.066;6.096;2022-08-11T10:20:18;10;10;
47741;PMS5003;33504;52.066;6.096;2022-08-11T10:22:46;9;9;
47741;PMS5003;33504;52.066;6.096;2022-08-11T10:25:14;13;12;
47741;PMS5003;33504;52.066;6.096;2022-08-11T10:27:42;8;8;
47741;PMS5003;33504;52.066;6.096;2022-08-11T10:30:09;8;8;
47741;PMS5003;33504;52.066;6.096;2022-08-11T10:32:37;10;10;
47741;PMS5003;33504;52.066;6.096;2022-08-11T10:35:05;10;10;
47741;PMS5003;33504;52.066;6.096;2022-08-11T10:37:33;11;11;
47741;PMS5003;33504;52.066;6.096;2022-08-11T10:40:03;11;11;
47741;PMS5003;33504;52.066;6.096;2022-08-11T10:42:32;11;11;
47741;PMS5003;33504;52.066;6.096;2022-08-11T10:44:59;8;8;
47741;PMS5003;33504;52.066;6.096;2022-08-11T10:47:30;10;10;
47741;PMS5003;33504;52.066;6.096;2022-08-11T10:49:57;8;8;
47741;PMS5003;33504;52.066;6.096;2022-08-11T10:52:25;9;9;
47741;PMS5003;33504;52.066;6.096;2022-08-11T10:54:53;9;9;
47741;PMS5003;33504;52.066;6.096;2022-08-11T10:57:21;9;9;
47741;PMS5003;33504;52.066;6.096;2022-08-11T10:59:49;9;9;
47741;PMS5003;33504;52.066;6.096;2022-08-11T11:02:16;11;10;
47741;PMS5003;33504;52.066;6.096;2022-08-11T11:04:55;9;9;
47741;PMS5003;33504;52.066;6.096;2022-08-11T11:07:30;8;8;
47741;PMS5003;33504;52.066;6.096;2022-08-11T11:10:04;9;9;
47741;PMS5003;33504;52.066;6.096;2022-08-11T11:12:33;9;9;
47741;PMS5003;33504;52.066;6.096;2022-08-11T11:15:04;9;9;
47741;PMS5003;33504;52.066;6.096;2022-08-11T11:17:34;9;9;
47741;PMS5003;33504;52.066;6.096;2022-08-11T11:20:04;9;9;
47741;PMS5003;33504;52.066;6.096;2022-08-11T11:22:33;10;9;
47741;PMS5003;33504;52.066;6.096;2022-08-11T11:25:03;10;10;
47741;PMS5003;33504;52.066;6.096;2022-08-11T11:27:47;8;8;
47741;PMS5003;33504;52.066;6.096;2022-08-11T11:30:22;7;7;
47741;PMS5003;33504;52.066;6.096;2022-08-11T11:33:01;8;7;
47741;PMS5003;33504;52.066;6.096;2022-08-11T11:35:35;9;9;
47741;PMS5003;33504;52.066;6.096;2022-08-11T11:38:13;8;8;
47741;PMS5003;33504;52.066;6.096;2022-08-11T11:40:41;9;9;
47741;PMS5003;33504;52.066;6.096;2022-08-11T11:43:08;9;9;
47741;PMS5003;33504;52.066;6.096;2022-08-11T11:45:36;7;7;
47741;PMS5003;33504;52.066;6.096;2022-08-11T11:48:06;9;9;
47741;PMS5003;33504;52.066;6.096;2022-08-11T11:50:34;8;8;
47741;PMS5003;33504;52.066;6.096;2022-08-11T11:53:03;7;7;
47741;PMS5003;33504;52.066;6.096;2022-08-11T11:55:33;7;7;
47741;PMS5003;33504;52.066;6.096;2022-08-11T11:58:01;8;8;
47741;PMS5003;33504;52.066;6.096;2022-08-11T12:00:30;7;7;
47741;PMS5003;33504;52.066;6.096;2022-08-11T12:02:58;8;7;
47741;PMS5003;33504;52.066;6.096;2022-08-11T12:05:27;8;8;
47741;PMS5003;33504;52.066;6.096;2022-08-11T12:07:57;8;8;
47741;PMS5003;33504;52.066;6.096;2022-08-11T12:10:24;9;9;
47741;PMS5003;33504;52.066;6.096;2022-08-11T12:12:51;10;10;
47741;PMS5003;33504;52.066;6.096;2022-08-11T12:15:18;9;9;
47741;PMS5003;33504;52.066;6.096;2022-08-11T12:17:45;11;11;
47741;PMS5003;33504;52.066;6.096;2022-08-11T12:20:13;9;9;
47741;PMS5003;33504;52.066;6.096;2022-08-11T12:22:42;9;9;
47741;PMS5003;33504;52.066;6.096;2022-08-11T12:25:10;7;7;
47741;PMS5003;33504;52.066;6.096;2022-08-11T12:27:37;10;9;
47741;PMS5003;33504;52.066;6.096;2022-08-11T12:30:05;7;7;
47741;PMS5003;33504;52.066;6.096;2022-08-11T12:32:33;8;8;
47741;PMS5003;33504;52.066;6.096;2022-08-11T12:35:03;8;8;
47741;PMS5003;33504;52.066;6.096;2022-08-11T12:37:34;10;9;
47741;PMS5003;33504;52.066;6.096;2022-08-11T12:40:06;9;8;
47741;PMS5003;33504;52.066;6.096;2022-08-11T12:42:36;8;8;
47741;PMS5003;33504;52.066;6.096;2022-08-11T12:45:05;8;8;
47741;PMS5003;33504;52.066;6.096;2022-08-11T12:47:36;9;9;
47741;PMS5003;33504;52.066;6.096;2022-08-11T12:50:04;9;9;
47741;PMS5003;33504;52.066;6.096;2022-08-11T12:52:36;8;8;
47741;PMS5003;33504;52.066;6.096;2022-08-11T12:55:10;9;8;
47741;PMS5003;33504;52.066;6.096;2022-08-11T12:57:40;10;9;
47741;PMS5003;33504;52.066;6.096;2022-08-11T13:00:12;11;11;
47741;PMS5003;33504;52.066;6.096;2022-08-11T13:02:40;8;8;
47741;PMS5003;33504;52.066;6.096;2022-08-11T13:05:10;9;8;
47741;PMS5003;33504;52.066;6.096;2022-08-11T13:07:39;8;8;
47741;PMS5003;33504;52.066;6.096;2022-08-11T13:10:09;9;9;
47741;PMS5003;33504;52.066;6.096;2022-08-11T13:12:39;9;9;
47741;PMS5003;33504;52.066;6.096;2022-08-11T13:15:08;8;8;
47741;PMS5003;33504;52.066;6.096;2022-08-11T13:17:39;9;9;
47741;PMS5003;33504;52.066;6.096;2022-08-11T13:20:08;7;7;
47741;PMS5003;33504;52.066;6.096;2022-08-11T13:22:38;6;6;
47741;PMS5003;33504;52.066;6.096;2022-08-11T13:25:07;7;7;
47741;PMS5003;33504;52.066;6.096;2022-08-11T13:27:35;9;9;
47741;PMS5003;33504;52.066;6.096;2022-08-11T13:30:02;8;8;
47741;PMS5003;33504;52.066;6.096;2022-08-11T13:32:30;8;8;
47741;PMS5003;33504;52.066;6.096;2022-08-11T13:34:57;7;7;
47741;PMS5003;33504;52.066;6.096;2022-08-11T13:37:25;8;8;
47741;PMS5003;33504;52.066;6.096;2022-08-11T13:39:52;7;7;
47741;PMS5003;33504;52.066;6.096;2022-08-11T13:42:19;8;8;
47741;PMS5003;33504;52.066;6.096;2022-08-11T13:44:46;7;7;
47741;PMS5003;33504;52.066;6.096;2022-08-11T13:47:14;9;9;
47741;PMS5003;33504;52.066;6.096;2022-08-11T13:49:41;7;7;
47741;PMS5003;33504;52.066;6.096;2022-08-11T13:52:11;10;9;
47741;PMS5003;33504;52.066;6.096;2022-08-11T13:54:40;7;7;
47741;PMS5003;33504;52.066;6.096;2022-08-11T13:57:09;8;8;
47741;PMS5003;33504;52.066;6.096;2022-08-11T13:59:38;6;6;
47741;PMS5003;33504;52.066;6.096;2022-08-11T14:02:06;9;8;
47741;PMS5003;33504;52.066;6.096;2022-08-11T14:04:39;9;8;
47741;PMS5003;33504;52.066;6.096;2022-08-11T14:07:09;8;8;
47741;PMS5003;33504;52.066;6.096;2022-08-11T14:09:39;9;8;
47741;PMS5003;33504;52.066;6.096;2022-08-11T14:12:11;9;9;
47741;PMS5003;33504;52.066;6.096;2022-08-11T14:14:41;9;8;
47741;PMS5003;33504;52.066;6.096;2022-08-11T14:17:12;8;8;
47741;PMS5003;33504;52.066;6.096;2022-08-11T14:19:43;8;8;
47741;PMS5003;33504;52.066;6.096;2022-08-11T14:22:12;10;10;
47741;PMS5003;33504;52.066;6.096;2022-08-11T14:24:42;9;8;
47741;PMS5003;33504;52.066;6.096;2022-08-11T14:27:19;10;10;
47741;PMS5003;33504;52.066;6.096;2022-08-11T14:29:49;7;6;
47741;PMS5003;33504;52.066;6.096;2022-08-11T14:32:18;8;8;
47741;PMS5003;33504;52.066;6.096;2022-08-11T14:34:46;8;8;
47741;PMS5003;33504;52.066;6.096;2022-08-11T14:37:14;9;8;
47741;PMS5003;33504;52.066;6.096;2022-08-11T14:39:46;8;8;
47741;PMS5003;33504;52.066;6.096;2022-08-11T14:42:15;9;9;
47741;PMS5003;33504;52.066;6.096;2022-08-11T14:44:44;9;9;
47741;PMS5003;33504;52.066;6.096;2022-08-11T14:47:13;9;9;
47741;PMS5003;33504;52.066;6.096;2022-08-11T14:49:41;8;8;
47741;PMS5003;33504;52.066;6.096;2022-08-11T14:52:10;8;7;
47741;PMS5003;33504;52.066;6.096;2022-08-11T14:54:41;10;9;
47741;PMS5003;33504;52.066;6.096;2022-08-11T14:57:09;7;7;
47741;PMS5003;33504;52.066;6.096;2022-08-11T14:59:38;8;8;
47741;PMS5003;33504;52.066;6.096;2022-08-11T15:02:05;7;7;
47741;PMS5003;33504;52.066;6.096;2022-08-11T15:04:33;9;9;
47741;PMS5003;33504;52.066;6.096;2022-08-11T15:07:00;7;6;
47741;PMS5003;33504;52.066;6.096;2022-08-11T15:09:27;9;8;
47741;PMS5003;33504;52.066;6.096;2022-08-11T15:11:54;7;7;
47741;PMS5003;33504;52.066;6.096;2022-08-11T15:14:22;7;7;
47741;PMS5003;33504;52.066;6.096;2022-08-11T15:16:50;8;8;
47741;PMS5003;33504;52.066;6.096;2022-08-11T15:19:17;8;7;
47741;PMS5003;33504;52.066;6.096;2022-08-11T15:21:46;7;7;
47741;PMS5003;33504;52.066;6.096;2022-08-11T15:24:13;8;8;
47741;PMS5003;33504;52.066;6.096;2022-08-11T15:26:40;8;8;
47741;PMS5003;33504;52.066;6.096;2022-08-11T15:29:07;9;8;
47741;PMS5003;33504;52.066;6.096;2022-08-11T15:31:37;7;7;
47741;PMS5003;33504;52.066;6.096;2022-08-11T15:34:06;7;7;
47741;PMS5003;33504;52.066;6.096;2022-08-11T15:36:36;9;9;
47741;PMS5003;33504;52.066;6.096;2022-08-11T15:39:06;7;7;
47741;PMS5003;33504;52.066;6.096;2022-08-11T15:41:42;8;8;
47741;PMS5003;33504;52.066;6.096;2022-08-11T15:44:14;6;6;
47741;PMS5003;33504;52.066;6.096;2022-08-11T15:46:43;7;7;
47741;PMS5003;33504;52.066;6.096;2022-08-11T15:49:17;9;8;
47741;PMS5003;33504;52.066;6.096;2022-08-11T15:51:48;8;8;
47741;PMS5003;33504;52.066;6.096;2022-08-11T15:54:23;7;7;
47741;PMS5003;33504;52.066;6.096;2022-08-11T15:56:52;7;7;
47741;PMS5003;33504;52.066;6.096;2022-08-11T15:59:21;7;7;
47741;PMS5003;33504;52.066;6.096;2022-08-11T16:01:50;7;7;
47741;PMS5003;33504;52.066;6.096;2022-08-11T16:04:20;7;7;
47741;PMS5003;33504;52.066;6.096;2022-08-11T16:06:50;7;7;
47741;PMS5003;33504;52.066;6.096;2022-08-11T16:09:21;6;6;
47741;PMS5003;33504;52.066;6.096;2022-08-11T16:11:53;8;8;
47741;PMS5003;33504;52.066;6.096;2022-08-11T16:14:25;8;7;
47741;PMS5003;33504;52.066;6.096;2022-08-11T16:16:56;7;7;
47741;PMS5003;33504;52.066;6.096;2022-08-11T16:19:26;6;6;
47741;PMS5003;33504;52.066;6.096;2022-08-11T16:21:55;6;6;
47741;PMS5003;33504;52.066;6.096;2022-08-11T16:24:23;6;6;
47741;PMS5003;33504;52.066;6.096;2022-08-11T16:26:51;7;7;
47741;PMS5003;33504;52.066;6.096;2022-08-11T16:29:19;6;6;
47741;PMS5003;33504;52.066;6.096;2022-08-11T16:31:49;6;6;
47741;PMS5003;33504;52.066;6.096;2022-08-11T16:34:18;13;13;
47741;PMS5003;33504;52.066;6.096;2022-08-11T16:36:45;22;22;
47741;PMS5003;33504;52.066;6.096;2022-08-11T16:39:12;44;43;
47741;PMS5003;33504;52.066;6.096;2022-08-11T16:41:40;33;32;
47741;PMS5003;33504;52.066;6.096;2022-08-11T16:44:09;13;13;
47741;PMS5003;33504;52.066;6.096;2022-08-11T16:46:39;17;17;
47741;PMS5003;33504;52.066;6.096;2022-08-11T16:49:08;25;24;
47741;PMS5003;33504;52.066;6.096;2022-08-11T16:51:37;50;49;
47741;PMS5003;33504;52.066;6.096;2022-08-11T16:54:04;129;128;
47741;PMS5003;33504;52.066;6.096;2022-08-11T16:56:34;123;122;
47741;PMS5003;33504;52.066;6.096;2022-08-11T16:59:08;85;84;
47741;PMS5003;33504;52.066;6.096;2022-08-11T17:01:39;47;45;
47741;PMS5003;33504;52.066;6.096;2022-08-11T17:04:13;17;17;
47741;PMS5003;33504;52.066;6.096;2022-08-11T17:06:45;10;10;
47741;PMS5003;33504;52.066;6.096;2022-08-11T17:09:16;24;23;
47741;PMS5003;33504;52.066;6.096;2022-08-11T17:11:50;17;17;